sensor_id;sensor_type;location;lat;lon;timestamp;P1;durP1;ratioP1;P2;durP2;ratioP2
34204;SDS011;20471;49.680;20.074;2022-11-14T00:00:47;92.02;;;54.88;;
34204;SDS011;20471;49.680;20.074;2022-11-14T00:03:14;93.92;;;55.63;;
34204;SDS011;20471;49.680;20.074;2022-11-14T00:05:41;94.75;;;55.67;;
34204;SDS011;20471;49.680;20.074;2022-11-14T00:08:13;102.47;;;54.77;;
34204;SDS011;20471;49.680;20.074;2022-11-14T00:10:44;97.78;;;54.40;;
34204;SDS011;20471;49.680;20.074;2022-11-14T00:13:13;105.87;;;55.12;;
34204;SDS011;20471;49.680;20.074;2022-11-14T00:15:41;102.67;;;54.88;;
34204;SDS011;20471;49.680;20.074;2022-11-14T00:18:08;91.42;;;55.50;;
34204;SDS011;20471;49.680;20.074;2022-11-14T00:20:35;107.40;;;59.42;;
34204;SDS011;20471;49.680;20.074;2022-11-14T00:23:02;107.52;;;59.13;;
34204;SDS011;20471;49.680;20.074;2022-11-14T00:25:28;101.72;;;57.83;;
34204;SDS011;20471;49.680;20.074;2022-11-14T00:27:56;95.40;;;59.55;;
34204;SDS011;20471;49.680;20.074;2022-11-14T00:30:24;102.72;;;60.38;;
34204;SDS011;20471;49.680;20.074;2022-11-14T00:32:52;110.52;;;64.70;;
34204;SDS011;20471;49.680;20.074;2022-11-14T00:35:18;132.72;;;73.50;;
34204;SDS011;20471;49.680;20.074;2022-11-14T00:37:45;112.68;;;66.37;;
34204;SDS011;20471;49.680;20.074;2022-11-14T00:40:12;124.47;;;66.40;;
34204;SDS011;20471;49.680;20.074;2022-11-14T00:42:39;106.80;;;58.75;;
34204;SDS011;20471;49.680;20.074;2022-11-14T00:45:05;109.00;;;59.58;;
34204;SDS011;20471;49.680;20.074;2022-11-14T00:47:32;95.45;;;51.10;;
34204;SDS011;20471;49.680;20.074;2022-11-14T00:49:59;85.12;;;49.90;;
34204;SDS011;20471;49.680;20.074;2022-11-14T00:52:25;89.05;;;52.65;;
34204;SDS011;20471;49.680;20.074;2022-11-14T00:54:52;92.15;;;51.92;;
34204;SDS011;20471;49.680;20.074;2022-11-14T00:57:18;86.85;;;52.93;;
34204;SDS011;20471;49.680;20.074;2022-11-14T00:59:45;94.85;;;57.90;;
34204;SDS011;20471;49.680;20.074;2022-11-14T01:02:11;100.27;;;59.40;;
34204;SDS011;20471;49.680;20.074;2022-11-14T01:04:38;96.47;;;57.83;;
34204;SDS011;20471;49.680;20.074;2022-11-14T01:07:05;100.30;;;59.27;;
34204;SDS011;20471;49.680;20.074;2022-11-14T01:09:31;101.18;;;59.33;;
34204;SDS011;20471;49.680;20.074;2022-11-14T01:11:58;85.85;;;50.70;;
34204;SDS011;20471;49.680;20.074;2022-11-14T01:14:24;76.70;;;47.13;;
34204;SDS011;20471;49.680;20.074;2022-11-14T01:16:51;72.72;;;46.13;;
34204;SDS011;20471;49.680;20.074;2022-11-14T01:19:18;73.65;;;44.83;;
34204;SDS011;20471;49.680;20.074;2022-11-14T01:21:44;87.57;;;51.30;;
34204;SDS011;20471;49.680;20.074;2022-11-14T01:24:11;89.65;;;53.85;;
34204;SDS011;20471;49.680;20.074;2022-11-14T01:26:37;90.50;;;55.08;;
34204;SDS011;20471;49.680;20.074;2022-11-14T01:29:04;99.42;;;63.95;;
34204;SDS011;20471;49.680;20.074;2022-11-14T01:31:30;91.10;;;60.55;;
34204;SDS011;20471;49.680;20.074;2022-11-14T01:33:57;91.53;;;63.48;;
34204;SDS011;20471;49.680;20.074;2022-11-14T01:36:24;85.87;;;55.85;;
34204;SDS011;20471;49.680;20.074;2022-11-14T01:38:51;85.87;;;53.40;;
34204;SDS011;20471;49.680;20.074;2022-11-14T01:41:18;84.35;;;49.45;;
34204;SDS011;20471;49.680;20.074;2022-11-14T01:43:46;79.47;;;51.95;;
34204;SDS011;20471;49.680;20.074;2022-11-14T01:46:25;70.72;;;49.23;;
34204;SDS011;20471;49.680;20.074;2022-11-14T01:48:57;68.97;;;45.80;;
34204;SDS011;20471;49.680;20.074;2022-11-14T01:51:37;68.87;;;44.70;;
34204;SDS011;20471;49.680;20.074;2022-11-14T01:54:18;67.67;;;45.88;;
34204;SDS011;20471;49.680;20.074;2022-11-14T01:56:58;65.50;;;40.73;;
34204;SDS011;20471;49.680;20.074;2022-11-14T01:59:28;60.30;;;40.20;;
34204;SDS011;20471;49.680;20.074;2022-11-14T02:02:02;79.10;;;51.70;;
34204;SDS011;20471;49.680;20.074;2022-11-14T02:04:34;75.45;;;50.35;;
34204;SDS011;20471;49.680;20.074;2022-11-14T02:07:05;81.65;;;55.15;;
34204;SDS011;20471;49.680;20.074;2022-11-14T02:09:35;81.02;;;52.43;;
34204;SDS011;20471;49.680;20.074;2022-11-14T02:12:05;78.72;;;50.35;;
34204;SDS011;20471;49.680;20.074;2022-11-14T02:14:34;75.25;;;46.48;;
34204;SDS011;20471;49.680;20.074;2022-11-14T02:17:03;66.60;;;40.23;;
34204;SDS011;20471;49.680;20.074;2022-11-14T02:19:40;62.43;;;37.67;;
34204;SDS011;20471;49.680;20.074;2022-11-14T02:22:16;62.83;;;39.42;;
34204;SDS011;20471;49.680;20.074;2022-11-14T02:24:42;83.95;;;54.30;;
34204;SDS011;20471;49.680;20.074;2022-11-14T02:27:10;84.85;;;54.58;;
34204;SDS011;20471;49.680;20.074;2022-11-14T02:29:40;88.17;;;57.23;;
34204;SDS011;20471;49.680;20.074;2022-11-14T02:32:07;82.17;;;53.78;;
34204;SDS011;20471;49.680;20.074;2022-11-14T02:34:37;85.77;;;54.95;;
34204;SDS011;20471;49.680;20.074;2022-11-14T02:37:03;86.45;;;52.50;;
34204;SDS011;20471;49.680;20.074;2022-11-14T02:39:30;74.47;;;40.73;;
34204;SDS011;20471;49.680;20.074;2022-11-14T02:41:57;62.67;;;37.60;;
34204;SDS011;20471;49.680;20.074;2022-11-14T02:44:23;65.03;;;38.35;;
34204;SDS011;20471;49.680;20.074;2022-11-14T02:46:50;77.62;;;45.38;;
34204;SDS011;20471;49.680;20.074;2022-11-14T02:49:16;70.83;;;44.10;;
34204;SDS011;20471;49.680;20.074;2022-11-14T02:51:43;69.55;;;44.27;;
34204;SDS011;20471;49.680;20.074;2022-11-14T02:54:09;65.80;;;43.28;;
34204;SDS011;20471;49.680;20.074;2022-11-14T02:56:36;68.07;;;42.48;;
34204;SDS011;20471;49.680;20.074;2022-11-14T02:59:03;71.45;;;43.63;;
34204;SDS011;20471;49.680;20.074;2022-11-14T03:01:29;71.85;;;47.55;;
34204;SDS011;20471;49.680;20.074;2022-11-14T03:03:56;95.42;;;61.98;;
34204;SDS011;20471;49.680;20.074;2022-11-14T03:06:23;78.10;;;45.88;;
34204;SDS011;20471;49.680;20.074;2022-11-14T03:08:49;68.85;;;43.38;;
34204;SDS011;20471;49.680;20.074;2022-11-14T03:11:16;71.75;;;45.43;;
34204;SDS011;20471;49.680;20.074;2022-11-14T03:13:42;91.08;;;55.92;;
34204;SDS011;20471;49.680;20.074;2022-11-14T03:16:10;74.70;;;45.60;;
34204;SDS011;20471;49.680;20.074;2022-11-14T03:18:39;76.55;;;42.20;;
34204;SDS011;20471;49.680;20.074;2022-11-14T03:21:06;70.30;;;39.13;;
34204;SDS011;20471;49.680;20.074;2022-11-14T03:23:39;68.52;;;38.60;;
34204;SDS011;20471;49.680;20.074;2022-11-14T03:26:07;76.62;;;37.03;;
34204;SDS011;20471;49.680;20.074;2022-11-14T03:28:35;69.80;;;41.75;;
34204;SDS011;20471;49.680;20.074;2022-11-14T03:31:03;69.97;;;42.05;;
34204;SDS011;20471;49.680;20.074;2022-11-14T03:33:31;69.50;;;42.35;;
34204;SDS011;20471;49.680;20.074;2022-11-14T03:35:59;73.12;;;41.98;;
34204;SDS011;20471;49.680;20.074;2022-11-14T03:38:26;77.62;;;42.78;;
34204;SDS011;20471;49.680;20.074;2022-11-14T03:40:53;70.65;;;42.55;;
34204;SDS011;20471;49.680;20.074;2022-11-14T03:43:20;73.83;;;41.10;;
34204;SDS011;20471;49.680;20.074;2022-11-14T03:45:46;64.20;;;41.15;;
34204;SDS011;20471;49.680;20.074;2022-11-14T03:48:13;70.10;;;41.25;;
34204;SDS011;20471;49.680;20.074;2022-11-14T03:50:40;66.82;;;41.15;;
34204;SDS011;20471;49.680;20.074;2022-11-14T03:53:09;61.75;;;40.40;;
34204;SDS011;20471;49.680;20.074;2022-11-14T03:55:36;69.03;;;39.83;;
34204;SDS011;20471;49.680;20.074;2022-11-14T03:58:04;68.55;;;40.08;;
34204;SDS011;20471;49.680;20.074;2022-11-14T04:00:31;63.28;;;39.53;;
34204;SDS011;20471;49.680;20.074;2022-11-14T04:02:57;69.22;;;42.03;;
34204;SDS011;20471;49.680;20.074;2022-11-14T04:05:24;66.33;;;38.88;;
34204;SDS011;20471;49.680;20.074;2022-11-14T04:07:50;64.03;;;37.70;;
34204;SDS011;20471;49.680;20.074;2022-11-14T04:10:17;53.83;;;32.42;;
34204;SDS011;20471;49.680;20.074;2022-11-14T04:12:47;49.08;;;30.50;;
34204;SDS011;20471;49.680;20.074;2022-11-14T04:15:15;50.70;;;30.50;;
34204;SDS011;20471;49.680;20.074;2022-11-14T04:17:43;47.25;;;30.27;;
34204;SDS011;20471;49.680;20.074;2022-11-14T04:20:11;53.65;;;36.98;;
34204;SDS011;20471;49.680;20.074;2022-11-14T04:22:39;51.83;;;33.92;;
34204;SDS011;20471;49.680;20.074;2022-11-14T04:25:06;51.53;;;34.18;;
34204;SDS011;20471;49.680;20.074;2022-11-14T04:27:34;54.88;;;30.92;;
34204;SDS011;20471;49.680;20.074;2022-11-14T04:30:01;51.77;;;31.45;;
34204;SDS011;20471;49.680;20.074;2022-11-14T04:32:29;61.75;;;35.05;;
34204;SDS011;20471;49.680;20.074;2022-11-14T04:34:56;56.85;;;33.45;;
34204;SDS011;20471;49.680;20.074;2022-11-14T04:37:22;65.75;;;33.30;;
34204;SDS011;20471;49.680;20.074;2022-11-14T04:39:49;51.90;;;34.00;;
34204;SDS011;20471;49.680;20.074;2022-11-14T04:42:15;59.48;;;35.38;;
34204;SDS011;20471;49.680;20.074;2022-11-14T04:44:42;58.95;;;33.63;;
34204;SDS011;20471;49.680;20.074;2022-11-14T04:47:08;61.55;;;32.38;;
34204;SDS011;20471;49.680;20.074;2022-11-14T04:49:35;61.00;;;32.13;;
34204;SDS011;20471;49.680;20.074;2022-11-14T04:52:02;52.70;;;28.10;;
34204;SDS011;20471;49.680;20.074;2022-11-14T04:54:28;50.85;;;29.90;;
34204;SDS011;20471;49.680;20.074;2022-11-14T04:56:55;48.70;;;29.50;;
34204;SDS011;20471;49.680;20.074;2022-11-14T04:59:21;39.00;;;25.52;;
34204;SDS011;20471;49.680;20.074;2022-11-14T05:01:50;40.30;;;26.07;;
34204;SDS011;20471;49.680;20.074;2022-11-14T05:04:17;35.95;;;24.23;;
34204;SDS011;20471;49.680;20.074;2022-11-14T05:06:45;34.88;;;23.45;;
34204;SDS011;20471;49.680;20.074;2022-11-14T05:09:11;39.03;;;23.62;;
34204;SDS011;20471;49.680;20.074;2022-11-14T05:11:38;34.18;;;23.10;;
34204;SDS011;20471;49.680;20.074;2022-11-14T05:14:04;38.00;;;24.67;;
34204;SDS011;20471;49.680;20.074;2022-11-14T05:16:31;35.35;;;22.73;;
34204;SDS011;20471;49.680;20.074;2022-11-14T05:18:58;42.35;;;23.32;;
34204;SDS011;20471;49.680;20.074;2022-11-14T05:21:24;39.00;;;24.82;;
34204;SDS011;20471;49.680;20.074;2022-11-14T05:23:51;40.95;;;25.50;;
34204;SDS011;20471;49.680;20.074;2022-11-14T05:26:18;37.40;;;25.23;;
34204;SDS011;20471;49.680;20.074;2022-11-14T05:28:44;40.15;;;25.20;;
34204;SDS011;20471;49.680;20.074;2022-11-14T05:31:12;40.35;;;24.90;;
34204;SDS011;20471;49.680;20.074;2022-11-14T05:33:42;35.73;;;24.00;;
34204;SDS011;20471;49.680;20.074;2022-11-14T05:36:11;36.83;;;23.83;;
34204;SDS011;20471;49.680;20.074;2022-11-14T05:38:40;35.05;;;23.40;;
34204;SDS011;20471;49.680;20.074;2022-11-14T05:41:08;38.13;;;25.12;;
34204;SDS011;20471;49.680;20.074;2022-11-14T05:43:37;37.90;;;24.02;;
34204;SDS011;20471;49.680;20.074;2022-11-14T05:46:05;37.15;;;24.57;;
34204;SDS011;20471;49.680;20.074;2022-11-14T05:48:35;40.95;;;24.67;;
34204;SDS011;20471;49.680;20.074;2022-11-14T05:51:02;38.10;;;23.52;;
34204;SDS011;20471;49.680;20.074;2022-11-14T05:53:31;33.70;;;22.98;;
34204;SDS011;20471;49.680;20.074;2022-11-14T05:55:59;37.83;;;25.50;;
34204;SDS011;20471;49.680;20.074;2022-11-14T05:58:32;44.10;;;27.02;;
34204;SDS011;20471;49.680;20.074;2022-11-14T06:01:00;42.85;;;30.10;;
34204;SDS011;20471;49.680;20.074;2022-11-14T06:03:32;48.92;;;28.90;;
34204;SDS011;20471;49.680;20.074;2022-11-14T06:06:03;50.30;;;28.55;;
34204;SDS011;20471;49.680;20.074;2022-11-14T06:08:32;46.35;;;28.05;;
34204;SDS011;20471;49.680;20.074;2022-11-14T06:11:10;47.00;;;28.62;;
34204;SDS011;20471;49.680;20.074;2022-11-14T06:13:41;46.65;;;28.77;;
34204;SDS011;20471;49.680;20.074;2022-11-14T06:18:43;43.87;;;26.90;;
34204;SDS011;20471;49.680;20.074;2022-11-14T06:21:14;49.18;;;28.02;;
34204;SDS011;20471;49.680;20.074;2022-11-14T06:23:43;49.45;;;28.12;;
34204;SDS011;20471;49.680;20.074;2022-11-14T06:26:15;48.87;;;30.12;;
34204;SDS011;20471;49.680;20.074;2022-11-14T06:28:51;45.55;;;28.17;;
34204;SDS011;20471;49.680;20.074;2022-11-14T06:31:19;39.98;;;26.25;;
34204;SDS011;20471;49.680;20.074;2022-11-14T06:33:47;44.95;;;26.80;;
34204;SDS011;20471;49.680;20.074;2022-11-14T06:36:13;49.13;;;27.60;;
34204;SDS011;20471;49.680;20.074;2022-11-14T06:38:41;50.90;;;28.12;;
34204;SDS011;20471;49.680;20.074;2022-11-14T06:41:15;47.93;;;27.40;;
34204;SDS011;20471;49.680;20.074;2022-11-14T06:43:46;53.85;;;28.60;;
34204;SDS011;20471;49.680;20.074;2022-11-14T06:46:16;54.80;;;33.42;;
34204;SDS011;20471;49.680;20.074;2022-11-14T06:48:45;69.53;;;39.33;;
34204;SDS011;20471;49.680;20.074;2022-11-14T06:51:13;74.90;;;41.53;;
34204;SDS011;20471;49.680;20.074;2022-11-14T06:53:43;73.33;;;42.65;;
34204;SDS011;20471;49.680;20.074;2022-11-14T06:56:11;70.85;;;38.83;;
34204;SDS011;20471;49.680;20.074;2022-11-14T06:58:40;58.17;;;33.53;;
34204;SDS011;20471;49.680;20.074;2022-11-14T07:01:11;57.23;;;34.45;;
34204;SDS011;20471;49.680;20.074;2022-11-14T07:03:43;57.08;;;33.65;;
34204;SDS011;20471;49.680;20.074;2022-11-14T07:06:16;67.45;;;35.90;;
34204;SDS011;20471;49.680;20.074;2022-11-14T07:08:45;68.05;;;38.15;;
34204;SDS011;20471;49.680;20.074;2022-11-14T07:11:12;70.00;;;38.00;;
34204;SDS011;20471;49.680;20.074;2022-11-14T07:13:43;66.62;;;38.60;;
34204;SDS011;20471;49.680;20.074;2022-11-14T07:16:10;62.13;;;36.58;;
34204;SDS011;20471;49.680;20.074;2022-11-14T07:18:37;65.97;;;36.40;;
34204;SDS011;20471;49.680;20.074;2022-11-14T07:21:04;67.87;;;37.05;;
34204;SDS011;20471;49.680;20.074;2022-11-14T07:23:32;67.78;;;36.50;;
34204;SDS011;20471;49.680;20.074;2022-11-14T07:26:00;68.45;;;38.95;;
34204;SDS011;20471;49.680;20.074;2022-11-14T07:28:35;58.60;;;36.68;;
34204;SDS011;20471;49.680;20.074;2022-11-14T07:31:05;59.25;;;33.95;;
34204;SDS011;20471;49.680;20.074;2022-11-14T07:33:33;55.48;;;32.63;;
34204;SDS011;20471;49.680;20.074;2022-11-14T07:36:00;51.37;;;30.82;;
34204;SDS011;20471;49.680;20.074;2022-11-14T07:38:28;55.83;;;33.30;;
34204;SDS011;20471;49.680;20.074;2022-11-14T07:40:57;53.38;;;32.35;;
34204;SDS011;20471;49.680;20.074;2022-11-14T07:43:27;52.88;;;30.45;;
34204;SDS011;20471;49.680;20.074;2022-11-14T07:48:26;40.73;;;26.27;;
34204;SDS011;20471;49.680;20.074;2022-11-14T07:50:57;37.93;;;23.07;;
34204;SDS011;20471;49.680;20.074;2022-11-14T07:53:28;44.55;;;24.72;;
34204;SDS011;20471;49.680;20.074;2022-11-14T07:55:56;41.53;;;25.72;;
34204;SDS011;20471;49.680;20.074;2022-11-14T07:58:29;45.12;;;29.85;;
34204;SDS011;20471;49.680;20.074;2022-11-14T08:00:59;47.35;;;29.95;;
34204;SDS011;20471;49.680;20.074;2022-11-14T08:03:26;40.08;;;25.15;;
34204;SDS011;20471;49.680;20.074;2022-11-14T08:06:04;41.00;;;24.92;;
34204;SDS011;20471;49.680;20.074;2022-11-14T08:08:34;40.67;;;23.98;;
34204;SDS011;20471;49.680;20.074;2022-11-14T08:11:01;37.25;;;25.23;;
34204;SDS011;20471;49.680;20.074;2022-11-14T08:13:28;34.60;;;22.80;;
34204;SDS011;20471;49.680;20.074;2022-11-14T08:15:55;34.60;;;23.25;;
34204;SDS011;20471;49.680;20.074;2022-11-14T08:18:22;33.53;;;22.15;;
34204;SDS011;20471;49.680;20.074;2022-11-14T08:20:49;34.40;;;24.27;;
34204;SDS011;20471;49.680;20.074;2022-11-14T08:23:15;35.43;;;24.20;;
34204;SDS011;20471;49.680;20.074;2022-11-14T08:25:42;31.30;;;20.70;;
34204;SDS011;20471;49.680;20.074;2022-11-14T08:28:09;31.70;;;21.27;;
34204;SDS011;20471;49.680;20.074;2022-11-14T08:30:35;31.77;;;19.05;;
34204;SDS011;20471;49.680;20.074;2022-11-14T08:33:02;25.85;;;18.75;;
34204;SDS011;20471;49.680;20.074;2022-11-14T08:38:00;31.52;;;19.98;;
34204;SDS011;20471;49.680;20.074;2022-11-14T08:40:27;30.95;;;20.37;;
34204;SDS011;20471;49.680;20.074;2022-11-14T08:42:58;35.03;;;21.77;;
34204;SDS011;20471;49.680;20.074;2022-11-14T08:45:26;39.85;;;23.55;;
34204;SDS011;20471;49.680;20.074;2022-11-14T08:47:54;33.63;;;23.15;;
34204;SDS011;20471;49.680;20.074;2022-11-14T08:50:21;36.00;;;23.62;;
34204;SDS011;20471;49.680;20.074;2022-11-14T08:52:48;36.95;;;22.82;;
34204;SDS011;20471;49.680;20.074;2022-11-14T08:55:16;33.38;;;20.85;;
34204;SDS011;20471;49.680;20.074;2022-11-14T08:57:44;28.10;;;19.80;;
34204;SDS011;20471;49.680;20.074;2022-11-14T09:00:11;27.87;;;18.00;;
34204;SDS011;20471;49.680;20.074;2022-11-14T09:02:39;23.35;;;16.37;;
34204;SDS011;20471;49.680;20.074;2022-11-14T09:05:06;24.75;;;17.37;;
34204;SDS011;20471;49.680;20.074;2022-11-14T09:07:34;30.80;;;18.80;;
34204;SDS011;20471;49.680;20.074;2022-11-14T09:10:01;26.30;;;18.23;;
34204;SDS011;20471;49.680;20.074;2022-11-14T09:12:29;26.23;;;18.70;;
34204;SDS011;20471;49.680;20.074;2022-11-14T09:14:55;26.30;;;17.95;;
34204;SDS011;20471;49.680;20.074;2022-11-14T09:17:22;24.92;;;14.93;;
34204;SDS011;20471;49.680;20.074;2022-11-14T09:19:49;24.63;;;17.17;;
34204;SDS011;20471;49.680;20.074;2022-11-14T09:22:16;25.90;;;16.65;;
34204;SDS011;20471;49.680;20.074;2022-11-14T09:24:43;22.48;;;14.45;;
34204;SDS011;20471;49.680;20.074;2022-11-14T09:27:12;21.90;;;14.75;;
34204;SDS011;20471;49.680;20.074;2022-11-14T09:29:38;23.32;;;14.07;;
34204;SDS011;20471;49.680;20.074;2022-11-14T09:32:05;21.65;;;14.63;;
34204;SDS011;20471;49.680;20.074;2022-11-14T09:34:31;22.65;;;14.18;;
34204;SDS011;20471;49.680;20.074;2022-11-14T09:36:58;17.82;;;13.28;;
34204;SDS011;20471;49.680;20.074;2022-11-14T09:39:25;19.90;;;14.20;;
34204;SDS011;20471;49.680;20.074;2022-11-14T09:47:40;16.48;;;13.15;;
34204;SDS011;20471;49.680;20.074;2022-11-14T09:55:43;16.60;;;12.40;;
34204;SDS011;20471;49.680;20.074;2022-11-14T09:58:15;20.77;;;13.75;;
34204;SDS011;20471;49.680;20.074;2022-11-14T10:00:53;18.52;;;13.30;;
34204;SDS011;20471;49.680;20.074;2022-11-14T10:03:50;21.90;;;13.50;;
34204;SDS011;20471;49.680;20.074;2022-11-14T10:09:35;21.17;;;13.62;;
34204;SDS011;20471;49.680;20.074;2022-11-14T10:12:23;22.95;;;14.55;;
34204;SDS011;20471;49.680;20.074;2022-11-14T10:20:32;16.95;;;12.35;;
34204;SDS011;20471;49.680;20.074;2022-11-14T10:26:25;22.93;;;11.93;;
34204;SDS011;20471;49.680;20.074;2022-11-14T10:29:23;17.07;;;11.93;;
34204;SDS011;20471;49.680;20.074;2022-11-14T10:32:07;15.38;;;12.07;;
34204;SDS011;20471;49.680;20.074;2022-11-14T10:35:13;13.95;;;10.68;;
34204;SDS011;20471;49.680;20.074;2022-11-14T10:40:47;15.63;;;12.28;;
34204;SDS011;20471;49.680;20.074;2022-11-14T10:43:38;14.78;;;11.65;;
34204;SDS011;20471;49.680;20.074;2022-11-14T10:46:19;15.68;;;11.55;;
34204;SDS011;20471;49.680;20.074;2022-11-14T10:48:51;15.72;;;11.12;;
34204;SDS011;20471;49.680;20.074;2022-11-14T10:51:30;17.35;;;11.68;;
34204;SDS011;20471;49.680;20.074;2022-11-14T10:54:22;12.55;;;10.40;;
34204;SDS011;20471;49.680;20.074;2022-11-14T10:59:46;15.60;;;10.05;;
34204;SDS011;20471;49.680;20.074;2022-11-14T11:02:14;15.65;;;9.88;;
34204;SDS011;20471;49.680;20.074;2022-11-14T11:04:41;13.50;;;10.25;;
34204;SDS011;20471;49.680;20.074;2022-11-14T11:10:06;11.73;;;9.33;;
34204;SDS011;20471;49.680;20.074;2022-11-14T11:13:05;12.88;;;9.00;;
34204;SDS011;20471;49.680;20.074;2022-11-14T11:15:39;12.93;;;8.55;;
34204;SDS011;20471;49.680;20.074;2022-11-14T11:21:01;12.43;;;8.95;;
34204;SDS011;20471;49.680;20.074;2022-11-14T11:23:35;13.13;;;8.60;;
34204;SDS011;20471;49.680;20.074;2022-11-14T11:29:07;11.75;;;8.13;;
34204;SDS011;20471;49.680;20.074;2022-11-14T11:39:56;14.25;;;8.73;;
34204;SDS011;20471;49.680;20.074;2022-11-14T11:42:30;15.88;;;9.68;;
34204;SDS011;20471;49.680;20.074;2022-11-14T11:44:59;11.05;;;8.08;;
34204;SDS011;20471;49.680;20.074;2022-11-14T11:47:31;13.58;;;8.83;;
34204;SDS011;20471;49.680;20.074;2022-11-14T11:50:00;10.75;;;8.58;;
34204;SDS011;20471;49.680;20.074;2022-11-14T11:55:33;12.53;;;8.68;;
34204;SDS011;20471;49.680;20.074;2022-11-14T11:58:05;11.12;;;7.50;;
34204;SDS011;20471;49.680;20.074;2022-11-14T12:00:39;14.40;;;8.30;;
34204;SDS011;20471;49.680;20.074;2022-11-14T12:03:10;12.85;;;7.47;;
34204;SDS011;20471;49.680;20.074;2022-11-14T12:11:56;13.35;;;9.48;;
34204;SDS011;20471;49.680;20.074;2022-11-14T12:20:36;10.85;;;8.33;;
34204;SDS011;20471;49.680;20.074;2022-11-14T12:31:26;11.75;;;8.33;;
34204;SDS011;20471;49.680;20.074;2022-11-14T12:33:58;10.20;;;7.58;;
34204;SDS011;20471;49.680;20.074;2022-11-14T12:36:32;9.38;;;7.42;;
34204;SDS011;20471;49.680;20.074;2022-11-14T12:39:00;10.53;;;8.10;;
34204;SDS011;20471;49.680;20.074;2022-11-14T13:00:34;9.93;;;7.60;;
34204;SDS011;20471;49.680;20.074;2022-11-14T13:03:25;10.98;;;7.90;;
34204;SDS011;20471;49.680;20.074;2022-11-14T13:06:14;8.33;;;6.70;;
34204;SDS011;20471;49.680;20.074;2022-11-14T13:11:58;10.75;;;7.65;;
34204;SDS011;20471;49.680;20.074;2022-11-14T13:14:50;9.73;;;7.50;;
34204;SDS011;20471;49.680;20.074;2022-11-14T13:17:37;11.48;;;7.67;;
34204;SDS011;20471;49.680;20.074;2022-11-14T13:20:27;10.60;;;7.80;;
34204;SDS011;20471;49.680;20.074;2022-11-14T13:28:47;15.32;;;8.75;;
34204;SDS011;20471;49.680;20.074;2022-11-14T13:31:18;24.80;;;16.10;;
34204;SDS011;20471;49.680;20.074;2022-11-14T13:33:48;33.40;;;21.85;;
34204;SDS011;20471;49.680;20.074;2022-11-14T13:48:21;26.15;;;16.65;;
34204;SDS011;20471;49.680;20.074;2022-11-14T13:50:57;24.82;;;16.57;;
34204;SDS011;20471;49.680;20.074;2022-11-14T13:53:28;26.27;;;16.73;;
34204;SDS011;20471;49.680;20.074;2022-11-14T13:56:02;37.65;;;17.10;;
34204;SDS011;20471;49.680;20.074;2022-11-14T14:01:34;20.23;;;16.30;;
34204;SDS011;20471;49.680;20.074;2022-11-14T14:18:28;28.23;;;18.92;;
34204;SDS011;20471;49.680;20.074;2022-11-14T14:29:51;36.53;;;25.68;;
34204;SDS011;20471;49.680;20.074;2022-11-14T14:32:35;50.65;;;31.70;;
34204;SDS011;20471;49.680;20.074;2022-11-14T14:35:21;41.55;;;29.12;;
34204;SDS011;20471;49.680;20.074;2022-11-14T14:37:51;50.30;;;32.03;;
34204;SDS011;20471;49.680;20.074;2022-11-14T14:40:24;49.90;;;32.42;;
34204;SDS011;20471;49.680;20.074;2022-11-14T14:42:54;57.35;;;35.45;;
34204;SDS011;20471;49.680;20.074;2022-11-14T14:45:24;58.50;;;37.08;;
34204;SDS011;20471;49.680;20.074;2022-11-14T14:48:00;51.15;;;32.73;;
34204;SDS011;20471;49.680;20.074;2022-11-14T14:58:27;50.15;;;34.58;;
34204;SDS011;20471;49.680;20.074;2022-11-14T15:03:43;65.75;;;38.95;;
34204;SDS011;20471;49.680;20.074;2022-11-14T15:09:02;66.70;;;43.85;;
34204;SDS011;20471;49.680;20.074;2022-11-14T15:11:42;73.83;;;45.38;;
34204;SDS011;20471;49.680;20.074;2022-11-14T15:14:13;69.37;;;44.27;;
34204;SDS011;20471;49.680;20.074;2022-11-14T15:16:43;74.40;;;44.90;;
34204;SDS011;20471;49.680;20.074;2022-11-14T15:19:13;87.50;;;53.02;;
34204;SDS011;20471;49.680;20.074;2022-11-14T15:21:43;84.85;;;50.10;;
34204;SDS011;20471;49.680;20.074;2022-11-14T15:24:15;82.95;;;48.73;;
34204;SDS011;20471;49.680;20.074;2022-11-14T15:26:44;100.15;;;58.60;;
34204;SDS011;20471;49.680;20.074;2022-11-14T15:29:22;96.37;;;56.53;;
34204;SDS011;20471;49.680;20.074;2022-11-14T15:31:54;93.87;;;54.65;;
34204;SDS011;20471;49.680;20.074;2022-11-14T15:39:41;85.67;;;50.33;;
34204;SDS011;20471;49.680;20.074;2022-11-14T15:42:25;75.45;;;47.53;;
34204;SDS011;20471;49.680;20.074;2022-11-14T15:44:52;79.42;;;48.15;;
34204;SDS011;20471;49.680;20.074;2022-11-14T15:47:24;81.60;;;50.58;;
34204;SDS011;20471;49.680;20.074;2022-11-14T15:52:47;78.45;;;48.70;;
34204;SDS011;20471;49.680;20.074;2022-11-14T15:55:21;88.65;;;52.10;;
34204;SDS011;20471;49.680;20.074;2022-11-14T15:57:49;73.40;;;46.40;;
34204;SDS011;20471;49.680;20.074;2022-11-14T16:00:16;77.90;;;47.40;;
34204;SDS011;20471;49.680;20.074;2022-11-14T16:02:51;79.72;;;50.30;;
34204;SDS011;20471;49.680;20.074;2022-11-14T16:05:25;91.40;;;54.83;;
34204;SDS011;20471;49.680;20.074;2022-11-14T16:07:55;88.58;;;54.48;;
34204;SDS011;20471;49.680;20.074;2022-11-14T16:10:23;87.85;;;53.68;;
34204;SDS011;20471;49.680;20.074;2022-11-14T16:12:52;82.65;;;52.70;;
34204;SDS011;20471;49.680;20.074;2022-11-14T16:15:19;89.13;;;54.58;;
34204;SDS011;20471;49.680;20.074;2022-11-14T16:17:47;89.62;;;55.78;;
34204;SDS011;20471;49.680;20.074;2022-11-14T16:20:18;95.17;;;57.53;;
34204;SDS011;20471;49.680;20.074;2022-11-14T16:22:49;96.10;;;58.68;;
34204;SDS011;20471;49.680;20.074;2022-11-14T16:25:19;109.83;;;61.95;;
34204;SDS011;20471;49.680;20.074;2022-11-14T16:27:51;88.87;;;55.65;;
34204;SDS011;20471;49.680;20.074;2022-11-14T16:30:19;91.53;;;57.58;;
34204;SDS011;20471;49.680;20.074;2022-11-14T16:32:48;94.13;;;57.67;;
34204;SDS011;20471;49.680;20.074;2022-11-14T16:35:17;95.22;;;56.33;;
34204;SDS011;20471;49.680;20.074;2022-11-14T16:37:49;91.50;;;57.73;;
34204;SDS011;20471;49.680;20.074;2022-11-14T16:40:18;101.55;;;62.45;;
34204;SDS011;20471;49.680;20.074;2022-11-14T16:42:56;103.05;;;62.13;;
34204;SDS011;20471;49.680;20.074;2022-11-14T16:45:24;100.27;;;61.02;;
34204;SDS011;20471;49.680;20.074;2022-11-14T16:47:52;98.65;;;61.23;;
34204;SDS011;20471;49.680;20.074;2022-11-14T16:50:18;106.90;;;65.15;;
34204;SDS011;20471;49.680;20.074;2022-11-14T16:52:45;101.58;;;65.57;;
34204;SDS011;20471;49.680;20.074;2022-11-14T16:55:12;105.12;;;63.23;;
34204;SDS011;20471;49.680;20.074;2022-11-14T16:57:39;103.50;;;64.00;;
34204;SDS011;20471;49.680;20.074;2022-11-14T17:00:07;111.35;;;66.60;;
34204;SDS011;20471;49.680;20.074;2022-11-14T17:02:38;112.22;;;67.72;;
34204;SDS011;20471;49.680;20.074;2022-11-14T17:05:05;109.80;;;69.17;;
34204;SDS011;20471;49.680;20.074;2022-11-14T17:07:33;116.35;;;69.95;;
34204;SDS011;20471;49.680;20.074;2022-11-14T17:09:59;111.85;;;67.25;;